createdAt,value
2022-10-20T00:01:31.058Z,86.87
2022-10-20T00:06:33.606Z,87.80
2022-10-20T00:11:35.473Z,87.30
2022-10-20T00:16:38.170Z,87.85
2022-10-20T00:21:39.815Z,88.28
2022-10-20T00:26:41.495Z,88.10
2022-10-20T00:31:43.880Z,88.69
2022-10-20T00:36:50.307Z,89.25
2022-10-20T00:41:52.989Z,89.20
2022-10-20T00:46:54.589Z,89.83
2022-10-20T00:51:56.189Z,89.52
2022-10-20T00:56:58.644Z,90.11
2022-10-20T01:02:01.680Z,89.82
2022-10-20T01:07:03.516Z,89.69
2022-10-20T01:12:27.146Z,89.67
2022-10-20T01:17:38.405Z,90.25
2022-10-20T01:22:58.107Z,90.70
2022-10-20T01:28:05.777Z,91.15
2022-10-20T01:33:13.463Z,91.76
2022-10-20T01:38:37.801Z,92.02
2022-10-20T01:43:41.054Z,92.15
2022-10-20T01:48:42.888Z,92.71
2022-10-20T01:53:44.480Z,93.36
2022-10-20T01:59:24.254Z,93.74
2022-10-20T02:04:33.788Z,94.22
2022-10-20T02:09:46.598Z,93.91
2022-10-20T02:14:48.778Z,94.32
2022-10-20T02:19:52.482Z,93.93
2022-10-20T02:24:54.156Z,93.91
2022-10-20T02:29:59.623Z,94.10
2022-10-20T02:35:07.473Z,94.10
2022-10-20T02:40:09.649Z,94.01
2022-10-20T02:45:11.329Z,93.67
2022-10-20T02:50:12.940Z,93.41
2022-10-20T02:55:14.627Z,93.03
2022-10-20T03:00:16.312Z,92.99
2022-10-20T03:05:18.816Z,93.08
2022-10-20T03:10:20.491Z,93.00
2022-10-20T03:15:22.057Z,93.24
2022-10-20T03:20:23.655Z,92.99
2022-10-20T03:25:25.324Z,92.79
2022-10-20T03:30:26.964Z,92.51
2022-10-20T03:35:28.552Z,92.25
2022-10-20T03:40:30.159Z,91.82
2022-10-20T03:45:31.788Z,92.20
2022-10-20T03:50:33.361Z,92.01
2022-10-20T03:55:37.458Z,91.87
2022-10-20T04:00:39.084Z,91.93
2022-10-20T04:05:41.119Z,91.83
2022-10-20T04:10:42.697Z,92.18
2022-10-20T04:15:44.297Z,92.60
2022-10-20T04:20:47.690Z,93.21
2022-10-20T04:25:49.327Z,93.94
2022-10-20T04:30:51.003Z,94.36
2022-10-20T04:36:06.624Z,94.50
2022-10-20T04:41:08.212Z,94.02
2022-10-20T04:46:10.686Z,94.07
2022-10-20T04:51:14.632Z,94.45
2022-10-20T04:56:19.367Z,94.41
2022-10-20T05:01:22.996Z,94.34
2022-10-20T05:06:27.174Z,94.36
2022-10-20T05:11:30.262Z,94.17
2022-10-20T05:16:32.053Z,94.02
2022-10-20T05:21:33.751Z,94.18
2022-10-20T05:26:37.186Z,93.85
2022-10-20T05:31:40.749Z,93.75
2022-10-20T05:36:42.338Z,93.70
2022-10-20T05:41:43.990Z,93.51
2022-10-20T05:46:45.636Z,93.47
2022-10-20T05:51:47.491Z,93.79
2022-10-20T05:56:49.136Z,93.91
2022-10-20T06:01:50.774Z,93.68
2022-10-20T06:06:53.081Z,93.96
2022-10-20T06:11:54.756Z,93.48
2022-10-20T06:16:56.840Z,93.83
2022-10-20T06:22:02.530Z,93.75
2022-10-20T06:27:08.320Z,93.70
2022-10-20T06:32:10.011Z,94.13
2022-10-20T06:37:11.674Z,94.20
2022-10-20T06:42:13.328Z,93.55
2022-10-20T06:47:20.028Z,93.45
2022-10-20T06:52:21.650Z,93.09
2022-10-20T06:57:23.252Z,92.29
2022-10-20T07:02:24.897Z,91.13
2022-10-20T07:07:26.674Z,90.30
2022-10-20T07:12:28.336Z,89.82
2022-10-20T07:17:29.957Z,88.35
2022-10-20T07:22:33.671Z,88.65
2022-10-20T07:27:35.465Z,87.65
2022-10-20T07:32:37.269Z,87.78
2022-10-20T07:37:39.195Z,85.05
2022-10-20T07:42:41.182Z,83.00
2022-10-20T07:47:45.406Z,82.14
2022-10-20T07:52:53.023Z,78.40
2022-10-20T07:57:54.660Z,77.10
2022-10-20T08:02:56.237Z,75.06
2022-10-20T08:07:58.246Z,73.30
2022-10-20T08:13:00.029Z,72.87
2022-10-20T08:18:01.923Z,71.98
2022-10-20T08:23:03.530Z,71.33
2022-10-20T08:28:05.702Z,70.43
2022-10-20T08:33:07.310Z,68.92
2022-10-20T08:38:08.896Z,67.86
2022-10-20T08:43:18.446Z,66.42
2022-10-20T08:48:28.260Z,66.03
2022-10-20T08:53:34.847Z,65.53
2022-10-20T08:58:41.303Z,64.92
2022-10-20T09:03:43.062Z,64.65
2022-10-20T09:08:45.059Z,64.32
2022-10-20T09:13:49.814Z,64.48
2022-10-20T09:18:57.125Z,63.62
2022-10-20T09:24:04.422Z,63.48
2022-10-20T09:29:14.126Z,62.01
2022-10-20T09:34:48.783Z,61.47
2022-10-20T09:39:55.650Z,61.96
2022-10-20T09:45:28.823Z,61.10
2022-10-20T09:50:34.162Z,61.27
2022-10-20T09:55:42.140Z,60.83
2022-10-20T10:00:47.327Z,60.46
2022-10-20T10:05:54.325Z,59.90
2022-10-20T10:11:01.430Z,59.60
2022-10-20T10:16:11.303Z,59.72
2022-10-20T10:21:18.329Z,58.79
2022-10-20T10:26:42.795Z,58.17
2022-10-20T10:31:55.242Z,58.13
2022-10-20T10:36:56.738Z,57.00
2022-10-20T10:42:23.505Z,57.18
2022-10-20T10:47:28.027Z,57.24
2022-10-20T10:52:38.725Z,56.57
2022-10-20T10:58:20.845Z,56.04
2022-10-20T11:04:07.642Z,56.49
2022-10-20T11:09:18.438Z,55.20
2022-10-20T11:14:50.964Z,55.37
2022-10-20T11:20:04.559Z,55.00
2022-10-20T11:25:29.481Z,54.32
2022-10-20T11:30:31.003Z,54.05
2022-10-20T11:36:01.421Z,54.65
2022-10-20T11:41:06.103Z,53.97
2022-10-20T11:46:13.254Z,52.95
2022-10-20T11:51:30.009Z,53.15
2022-10-20T11:57:00.906Z,52.22
2022-10-20T12:02:11.626Z,51.94
2022-10-20T12:07:25.196Z,51.88
2022-10-20T12:13:03.698Z,51.05
2022-10-20T12:18:06.993Z,50.75
2022-10-20T12:23:43.440Z,50.65
2022-10-20T12:28:45.072Z,50.42
2022-10-20T12:33:49.723Z,50.03
2022-10-20T12:38:54.154Z,50.62
2022-10-20T12:44:00.960Z,49.78
2022-10-20T12:49:11.036Z,50.92
2022-10-20T12:54:21.178Z,51.94
2022-10-20T12:59:28.856Z,52.08
2022-10-20T13:05:03.056Z,52.04
2022-10-20T13:10:30.171Z,52.09
2022-10-20T13:15:37.949Z,51.28
2022-10-20T13:20:39.474Z,52.12
2022-10-20T13:25:45.899Z,52.17
2022-10-20T13:30:55.694Z,53.34
2022-10-20T13:36:23.595Z,53.28
2022-10-20T13:41:30.763Z,53.63
2022-10-20T13:46:42.094Z,54.02
2022-10-20T13:51:52.301Z,54.73
2022-10-20T13:56:55.010Z,55.47
2022-10-20T14:02:00.374Z,56.12
2022-10-20T14:07:08.664Z,56.29
2022-10-20T14:12:23.642Z,57.52
2022-10-20T14:17:25.897Z,57.04
2022-10-20T14:22:27.502Z,57.06
2022-10-20T14:27:30.612Z,57.52
2022-10-20T14:32:34.257Z,58.43
2022-10-20T14:37:39.981Z,59.11
2022-10-20T14:42:44.376Z,59.40
2022-10-20T14:47:46.061Z,59.77
2022-10-20T14:52:52.906Z,60.62
2022-10-20T14:57:56.066Z,60.91
2022-10-20T15:03:01.569Z,61.32
2022-10-20T15:08:20.731Z,61.47
2022-10-20T15:13:32.817Z,61.83
2022-10-20T15:18:37.914Z,62.38
2022-10-20T15:23:41.776Z,63.05
2022-10-20T15:28:45.729Z,63.40
2022-10-20T15:33:47.906Z,63.74
2022-10-20T15:38:49.817Z,64.00
2022-10-20T15:43:59.394Z,64.46
2022-10-20T15:49:01.101Z,64.89
2022-10-20T15:54:04.016Z,65.43
2022-10-20T16:04:23.692Z,66.14
2022-10-20T16:09:25.398Z,66.52
2022-10-20T16:14:27.063Z,66.71
2022-10-20T16:19:28.879Z,67.03
2022-10-20T16:24:30.535Z,67.42
2022-10-20T16:29:32.809Z,67.86
2022-10-20T16:34:34.579Z,67.93
2022-10-20T16:39:36.212Z,67.91
2022-10-20T16:44:38.077Z,68.49
2022-10-20T16:49:39.739Z,68.11
2022-10-20T16:59:50.155Z,68.75
2022-10-20T17:04:51.789Z,69.34
2022-10-20T17:09:53.410Z,69.18
2022-10-20T17:14:55.092Z,69.51
2022-10-20T17:19:56.758Z,69.36
2022-10-20T17:24:58.361Z,69.15
2022-10-20T17:29:59.982Z,69.95
2022-10-20T17:35:01.611Z,69.82
2022-10-20T17:40:03.384Z,69.59
2022-10-20T17:45:05.672Z,69.32
2022-10-20T17:55:10.242Z,69.77
2022-10-20T18:00:19.160Z,69.11
2022-10-20T18:05:24.823Z,69.00
2022-10-20T18:10:26.624Z,68.83
2022-10-20T18:15:28.288Z,68.17
2022-10-20T18:20:32.266Z,67.82
2022-10-20T18:25:35.924Z,67.57
2022-10-20T18:30:38.010Z,66.92
2022-10-20T18:35:39.622Z,66.63
2022-10-20T18:40:41.247Z,66.17
2022-10-20T18:45:51.184Z,65.50
2022-10-20T18:50:56.866Z,65.51
2022-10-20T18:56:06.106Z,65.75
2022-10-20T19:01:10.293Z,64.97
2022-10-20T19:06:14.762Z,64.48
2022-10-20T19:11:16.685Z,64.00
2022-10-20T19:16:21.579Z,64.07
2022-10-20T19:21:24.386Z,63.87
2022-10-20T19:26:34.980Z,63.69
2022-10-20T19:31:39.655Z,62.94
2022-10-20T19:36:42.065Z,63.17
2022-10-20T19:41:44.248Z,62.80
2022-10-20T19:46:49.582Z,62.16
2022-10-20T19:51:51.392Z,62.19
2022-10-20T19:56:53.071Z,61.95
2022-10-20T20:01:54.759Z,61.64
2022-10-20T20:07:01.737Z,61.83
2022-10-20T20:12:04.078Z,62.04
2022-10-20T20:17:07.411Z,61.62
2022-10-20T20:22:11.850Z,62.23
2022-10-20T20:27:13.444Z,62.19
2022-10-20T20:32:15.400Z,61.66
2022-10-20T20:37:17.033Z,61.38
2022-10-20T20:42:19.001Z,61.59
2022-10-20T20:47:20.899Z,61.61
2022-10-20T20:52:22.709Z,61.86
2022-10-20T20:57:24.898Z,62.13
2022-10-20T21:02:29.515Z,62.47
2022-10-20T21:07:31.871Z,62.62
2022-10-20T21:12:35.356Z,62.68
2022-10-20T21:17:37.218Z,63.26
2022-10-20T21:22:39.115Z,64.40
2022-10-20T21:27:42.609Z,63.97
2022-10-20T21:32:44.291Z,64.29
2022-10-20T21:37:48.132Z,64.33
2022-10-20T21:42:49.740Z,64.41
2022-10-20T21:47:54.973Z,64.77
2022-10-20T21:52:56.567Z,65.57
2022-10-20T21:57:58.241Z,65.59
2022-10-20T22:03:00.334Z,65.43
2022-10-20T22:08:01.944Z,65.82
2022-10-20T22:13:03.976Z,66.45
2022-10-20T22:18:05.624Z,66.49
2022-10-20T22:23:07.403Z,65.70
2022-10-20T22:28:09.251Z,65.94
2022-10-20T22:33:10.836Z,65.58
2022-10-20T22:38:12.625Z,65.57
2022-10-20T22:43:14.243Z,65.64
2022-10-20T22:48:15.849Z,65.94
2022-10-20T22:53:17.479Z,65.79
2022-10-20T22:58:22.704Z,65.61
2022-10-20T23:03:24.356Z,65.54
2022-10-20T23:08:28.206Z,65.51
2022-10-20T23:13:32.286Z,65.49
2022-10-20T23:18:34.349Z,65.09
2022-10-20T23:23:37.447Z,64.56
2022-10-20T23:28:39.340Z,64.33
2022-10-20T23:33:42.495Z,64.32
2022-10-20T23:38:44.103Z,64.55
2022-10-20T23:43:45.706Z,64.70
2022-10-20T23:48:47.307Z,64.66
2022-10-20T23:53:48.897Z,64.53
2022-10-20T23:58:50.526Z,64.59
